sensor_id;sensor_type;location;lat;lon;timestamp;pressure;altitude;pressure_sealevel;temperature;humidity
48204;BME280;33994;50.998;5.864;2023-02-23T00:02:54;100760.50;;;8.08;100.00
48204;BME280;33994;50.998;5.864;2023-02-23T00:06:01;100757.91;;;8.05;100.00
48204;BME280;33994;50.998;5.864;2023-02-23T00:09:05;100759.63;;;8.03;100.00
48204;BME280;33994;50.998;5.864;2023-02-23T00:12:08;100757.03;;;8.03;100.00
48204;BME280;33994;50.998;5.864;2023-02-23T00:15:12;100766.59;;;7.99;100.00
48204;BME280;33994;50.998;5.864;2023-02-23T00:18:15;100766.59;;;7.99;100.00
48204;BME280;33994;50.998;5.864;2023-02-23T00:21:21;100767.50;;;7.97;100.00
48204;BME280;33994;50.998;5.864;2023-02-23T00:24:24;100765.75;;;7.94;100.00
48204;BME280;33994;50.998;5.864;2023-02-23T00:27:27;100760.56;;;7.94;100.00
48204;BME280;33994;50.998;5.864;2023-02-23T00:30:31;100755.34;;;7.94;100.00
48204;BME280;33994;50.998;5.864;2023-02-23T00:33:35;100754.50;;;7.94;100.00
48204;BME280;33994;50.998;5.864;2023-02-23T00:36:38;100756.22;;;7.93;100.00
48204;BME280;33994;50.998;5.864;2023-02-23T00:39:41;100751.03;;;7.93;100.00
48204;BME280;33994;50.998;5.864;2023-02-23T00:42:46;100756.22;;;7.93;100.00
48204;BME280;33994;50.998;5.864;2023-02-23T00:45:53;100756.22;;;7.92;100.00
48204;BME280;33994;50.998;5.864;2023-02-23T00:48:57;100757.09;;;7.92;100.00
48204;BME280;33994;50.998;5.864;2023-02-23T00:52:01;100750.16;;;7.90;100.00
48204;BME280;33994;50.998;5.864;2023-02-23T00:55:06;100751.91;;;7.89;100.00
48204;BME280;33994;50.998;5.864;2023-02-23T00:58:08;100760.56;;;7.88;100.00
48204;BME280;33994;50.998;5.864;2023-02-23T01:01:14;100764.06;;;7.87;100.00
48204;BME280;33994;50.998;5.864;2023-02-23T01:04:17;100760.59;;;7.85;100.00
48204;BME280;33994;50.998;5.864;2023-02-23T01:07:21;100758.88;;;7.84;100.00
48204;BME280;33994;50.998;5.864;2023-02-23T01:10:24;100763.22;;;7.84;100.00
48204;BME280;33994;50.998;5.864;2023-02-23T01:13:27;100766.69;;;7.83;100.00
48204;BME280;33994;50.998;5.864;2023-02-23T01:16:33;100755.41;;;7.82;100.00
48204;BME280;33994;50.998;5.864;2023-02-23T01:19:36;100760.63;;;7.82;100.00
48204;BME280;33994;50.998;5.864;2023-02-23T01:22:40;100759.75;;;7.80;100.00
48204;BME280;33994;50.998;5.864;2023-02-23T01:25:44;100757.16;;;7.80;100.00
48204;BME280;33994;50.998;5.864;2023-02-23T01:28:48;100759.78;;;7.78;100.00
48204;BME280;33994;50.998;5.864;2023-02-23T01:31:52;100758.03;;;7.76;100.00
48204;BME280;33994;50.998;5.864;2023-02-23T01:34:55;100760.63;;;7.76;100.00
48204;BME280;33994;50.998;5.864;2023-02-23T01:37:59;100760.63;;;7.76;100.00
48204;BME280;33994;50.998;5.864;2023-02-23T01:41:02;100755.44;;;7.76;100.00
48204;BME280;33994;50.998;5.864;2023-02-23T01:44:07;100769.31;;;7.78;100.00
48204;BME280;33994;50.998;5.864;2023-02-23T01:47:13;100763.25;;;7.76;100.00
48204;BME280;33994;50.998;5.864;2023-02-23T01:50:17;100756.28;;;7.76;100.00
48204;BME280;33994;50.998;5.864;2023-02-23T01:53:21;100761.53;;;7.75;100.00
48204;BME280;33994;50.998;5.864;2023-02-23T01:56:28;100753.72;;;7.75;100.00
48204;BME280;33994;50.998;5.864;2023-02-23T01:59:36;100755.44;;;7.73;100.00
48204;BME280;33994;50.998;5.864;2023-02-23T02:02:42;100748.50;;;7.72;100.00
48204;BME280;33994;50.998;5.864;2023-02-23T02:05:47;100756.31;;;7.72;100.00
48204;BME280;33994;50.998;5.864;2023-02-23T02:08:54;100754.59;;;7.71;100.00
48204;BME280;33994;50.998;5.864;2023-02-23T02:11:58;100753.72;;;7.69;100.00
48204;BME280;33994;50.998;5.864;2023-02-23T02:15:03;100752.88;;;7.67;100.00
48204;BME280;33994;50.998;5.864;2023-02-23T02:18:14;100755.47;;;7.67;100.00
48204;BME280;33994;50.998;5.864;2023-02-23T02:22:04;100754.63;;;7.66;100.00
48204;BME280;33994;50.998;5.864;2023-02-23T02:36:24;100756.34;;;7.64;100.00
48204;BME280;33994;50.998;5.864;2023-02-23T02:39:40;100754.59;;;7.65;100.00
48204;BME280;33994;50.998;5.864;2023-02-23T02:42:53;100747.69;;;7.64;100.00
48204;BME280;33994;50.998;5.864;2023-02-23T02:46:04;100751.16;;;7.64;100.00
48204;BME280;33994;50.998;5.864;2023-02-23T02:49:14;100743.34;;;7.61;100.00
48204;BME280;33994;50.998;5.864;2023-02-23T02:52:22;100744.22;;;7.62;100.00
48204;BME280;33994;50.998;5.864;2023-02-23T02:55:31;100743.34;;;7.61;100.00
48204;BME280;33994;50.998;5.864;2023-02-23T02:58:36;100746.81;;;7.62;100.00
48204;BME280;33994;50.998;5.864;2023-02-23T03:01:39;100739.88;;;7.61;100.00
48204;BME280;33994;50.998;5.864;2023-02-23T03:04:42;100740.75;;;7.61;100.00
48204;BME280;33994;50.998;5.864;2023-02-23T03:07:52;100739.88;;;7.61;100.00
48204;BME280;33994;50.998;5.864;2023-02-23T03:11:02;100736.41;;;7.60;100.00
48204;BME280;33994;50.998;5.864;2023-02-23T03:14:15;100748.56;;;7.60;100.00
48204;BME280;33994;50.998;5.864;2023-02-23T03:17:32;100745.97;;;7.60;100.00
48204;BME280;33994;50.998;5.864;2023-02-23T03:20:42;100740.75;;;7.61;100.00
48204;BME280;33994;50.998;5.864;2023-02-23T03:23:51;100745.09;;;7.64;100.00
48204;BME280;33994;50.998;5.864;2023-02-23T03:26:59;100753.75;;;7.64;100.00
48204;BME280;33994;50.998;5.864;2023-02-23T03:30:12;100747.66;;;7.65;100.00
48204;BME280;33994;50.998;5.864;2023-02-23T03:33:24;100748.53;;;7.66;100.00
48204;BME280;33994;50.998;5.864;2023-02-23T03:36:36;100753.72;;;7.66;100.00
48204;BME280;33994;50.998;5.864;2023-02-23T03:39:46;100752.03;;;7.66;100.00
48204;BME280;33994;50.998;5.864;2023-02-23T03:42:53;100749.41;;;7.66;100.00
48204;BME280;33994;50.998;5.864;2023-02-23T03:46:00;100745.94;;;7.67;100.00
48204;BME280;33994;50.998;5.864;2023-02-23T03:49:08;100754.59;;;7.68;100.00
48204;BME280;33994;50.998;5.864;2023-02-23T03:52:15;100754.59;;;7.68;100.00
48204;BME280;33994;50.998;5.864;2023-02-23T03:55:22;100753.72;;;7.66;100.00
48204;BME280;33994;50.998;5.864;2023-02-23T03:58:31;100749.41;;;7.65;100.00
48204;BME280;33994;50.998;5.864;2023-02-23T04:01:37;100757.22;;;7.68;100.00
48204;BME280;33994;50.998;5.864;2023-02-23T04:04:41;100762.44;;;7.66;100.00
48204;BME280;33994;50.998;5.864;2023-02-23T04:07:49;100765.91;;;7.64;100.00
48204;BME280;33994;50.998;5.864;2023-02-23T04:10:59;100764.19;;;7.63;100.00
48204;BME280;33994;50.998;5.864;2023-02-23T04:14:08;100761.56;;;7.61;100.00
48204;BME280;33994;50.998;5.864;2023-02-23T04:17:17;100765.91;;;7.61;100.00
48204;BME280;33994;50.998;5.864;2023-02-23T04:20:21;100766.78;;;7.61;100.00
48204;BME280;33994;50.998;5.864;2023-02-23T04:23:24;100769.38;;;7.60;100.00
48204;BME280;33994;50.998;5.864;2023-02-23T04:26:27;100778.09;;;7.59;100.00
48204;BME280;33994;50.998;5.864;2023-02-23T04:29:32;100779.81;;;7.57;100.00
48204;BME280;33994;50.998;5.864;2023-02-23T04:32:34;100778.94;;;7.56;100.00
48204;BME280;33994;50.998;5.864;2023-02-23T04:35:37;100785.88;;;7.57;100.00
48204;BME280;33994;50.998;5.864;2023-02-23T04:38:41;100777.19;;;7.57;100.00
48204;BME280;33994;50.998;5.864;2023-02-23T04:41:44;100779.81;;;7.57;100.00
48204;BME280;33994;50.998;5.864;2023-02-23T04:44:48;100779.81;;;7.57;100.00
48204;BME280;33994;50.998;5.864;2023-02-23T04:47:51;100781.56;;;7.56;100.00
48204;BME280;33994;50.998;5.864;2023-02-23T04:50:54;100783.28;;;7.56;100.00
48204;BME280;33994;50.998;5.864;2023-02-23T04:53:57;100784.13;;;7.54;100.00
48204;BME280;33994;50.998;5.864;2023-02-23T04:57:00;100789.34;;;7.53;100.00
48204;BME280;33994;50.998;5.864;2023-02-23T05:00:06;100788.50;;;7.52;100.00
48204;BME280;33994;50.998;5.864;2023-02-23T05:03:10;100792.81;;;7.53;100.00
48204;BME280;33994;50.998;5.864;2023-02-23T05:06:13;100794.56;;;7.53;100.00
48204;BME280;33994;50.998;5.864;2023-02-23T05:09:16;100798.91;;;7.52;100.00
48204;BME280;33994;50.998;5.864;2023-02-23T05:12:19;100796.31;;;7.52;100.00
48204;BME280;33994;50.998;5.864;2023-02-23T05:15:24;100795.44;;;7.53;100.00
48204;BME280;33994;50.998;5.864;2023-02-23T05:18:27;100802.34;;;7.54;100.00
48204;BME280;33994;50.998;5.864;2023-02-23T05:21:30;100798.03;;;7.52;100.00
48204;BME280;33994;50.998;5.864;2023-02-23T05:24:34;100798.91;;;7.49;100.00
48204;BME280;33994;50.998;5.864;2023-02-23T05:27:37;100802.41;;;7.48;100.00
48204;BME280;33994;50.998;5.864;2023-02-23T05:30:42;100808.44;;;7.50;100.00
48204;BME280;33994;50.998;5.864;2023-02-23T05:33:45;100798.03;;;7.50;100.00
48204;BME280;33994;50.998;5.864;2023-02-23T05:36:48;100800.63;;;7.53;100.00
48204;BME280;33994;50.998;5.864;2023-02-23T05:39:51;100804.97;;;7.50;100.00
48204;BME280;33994;50.998;5.864;2023-02-23T05:42:57;100802.38;;;7.50;100.00
48204;BME280;33994;50.998;5.864;2023-02-23T05:46:05;100797.16;;;7.50;100.00
48204;BME280;33994;50.998;5.864;2023-02-23T05:49:09;100799.78;;;7.51;100.00
48204;BME280;33994;50.998;5.864;2023-02-23T05:52:12;100797.19;;;7.51;100.00
48204;BME280;33994;50.998;5.864;2023-02-23T05:55:15;100798.91;;;7.52;100.00
48204;BME280;33994;50.998;5.864;2023-02-23T05:58:18;100805.84;;;7.50;100.00
48204;BME280;33994;50.998;5.864;2023-02-23T06:01:22;100800.66;;;7.47;100.00
48204;BME280;33994;50.998;5.864;2023-02-23T06:04:26;100801.53;;;7.48;100.00
48204;BME280;33994;50.998;5.864;2023-02-23T06:07:29;100801.50;;;7.46;100.00
48204;BME280;33994;50.998;5.864;2023-02-23T06:10:32;100804.13;;;7.46;100.00
48204;BME280;33994;50.998;5.864;2023-02-23T06:13:35;100813.66;;;7.46;100.00
48204;BME280;33994;50.998;5.864;2023-02-23T06:16:40;100810.19;;;7.45;100.00
48204;BME280;33994;50.998;5.864;2023-02-23T06:19:43;100818.00;;;7.45;100.00
48204;BME280;33994;50.998;5.864;2023-02-23T06:22:46;100823.22;;;7.48;100.00
48204;BME280;33994;50.998;5.864;2023-02-23T06:25:49;100824.94;;;7.48;100.00
48204;BME280;33994;50.998;5.864;2023-02-23T06:28:52;100824.94;;;7.49;100.00
48204;BME280;33994;50.998;5.864;2023-02-23T06:31:56;100823.22;;;7.51;100.00
48204;BME280;33994;50.998;5.864;2023-02-23T06:34:59;100836.22;;;7.53;100.00
48204;BME280;33994;50.998;5.864;2023-02-23T06:38:02;100834.47;;;7.53;100.00
48204;BME280;33994;50.998;5.864;2023-02-23T06:41:07;100833.59;;;7.54;100.00
48204;BME280;33994;50.998;5.864;2023-02-23T06:44:10;100846.59;;;7.54;100.00
48204;BME280;33994;50.998;5.864;2023-02-23T06:47:14;100848.34;;;7.54;100.00
48204;BME280;33994;50.998;5.864;2023-02-23T06:50:17;100851.81;;;7.53;100.00
48204;BME280;33994;50.998;5.864;2023-02-23T06:53:20;100852.69;;;7.50;100.00
48204;BME280;33994;50.998;5.864;2023-02-23T06:56:24;100853.56;;;7.46;100.00
48204;BME280;33994;50.998;5.864;2023-02-23T06:59:26;100860.53;;;7.44;100.00
48204;BME280;33994;50.998;5.864;2023-02-23T07:02:31;100863.13;;;7.41;100.00
48204;BME280;33994;50.998;5.864;2023-02-23T07:05:34;100870.03;;;7.33;100.00
48204;BME280;33994;50.998;5.864;2023-02-23T07:08:37;100867.44;;;7.28;100.00
48204;BME280;33994;50.998;5.864;2023-02-23T07:11:39;100868.31;;;7.23;100.00
48204;BME280;33994;50.998;5.864;2023-02-23T07:14:42;100885.63;;;7.24;100.00
48204;BME280;33994;50.998;5.864;2023-02-23T07:17:47;100880.47;;;7.21;100.00
48204;BME280;33994;50.998;5.864;2023-02-23T07:20:50;100889.09;;;7.20;100.00
48204;BME280;33994;50.998;5.864;2023-02-23T07:23:53;100892.59;;;7.17;100.00
48204;BME280;33994;50.998;5.864;2023-02-23T07:26:56;100894.34;;;7.17;100.00
48204;BME280;33994;50.998;5.864;2023-02-23T07:29:59;100896.06;;;7.15;100.00
48204;BME280;33994;50.998;5.864;2023-02-23T07:33:04;100895.16;;;7.13;100.00
48204;BME280;33994;50.998;5.864;2023-02-23T07:36:07;100904.72;;;7.07;100.00
48204;BME280;33994;50.998;5.864;2023-02-23T07:39:11;100900.38;;;7.05;100.00
48204;BME280;33994;50.998;5.864;2023-02-23T07:42:14;100904.72;;;7.04;100.00
48204;BME280;33994;50.998;5.864;2023-02-23T07:45:18;100909.91;;;7.04;100.00
48204;BME280;33994;50.998;5.864;2023-02-23T07:48:22;100904.72;;;7.07;100.00
48204;BME280;33994;50.998;5.864;2023-02-23T07:51:25;100906.44;;;7.09;100.00
48204;BME280;33994;50.998;5.864;2023-02-23T07:54:28;100925.53;;;7.11;100.00
48204;BME280;33994;50.998;5.864;2023-02-23T07:57:31;100921.19;;;7.11;100.00
48204;BME280;33994;50.998;5.864;2023-02-23T08:00:35;100916.84;;;7.12;100.00
48204;BME280;33994;50.998;5.864;2023-02-23T08:03:40;100928.97;;;7.13;100.00
48204;BME280;33994;50.998;5.864;2023-02-23T08:06:43;100925.53;;;7.11;100.00
48204;BME280;33994;50.998;5.864;2023-02-23T08:09:46;100942.00;;;7.14;100.00
48204;BME280;33994;50.998;5.864;2023-02-23T08:12:50;100938.53;;;7.15;100.00
48204;BME280;33994;50.998;5.864;2023-02-23T08:15:53;100942.88;;;7.16;100.00
48204;BME280;33994;50.998;5.864;2023-02-23T08:18:58;100953.28;;;7.18;100.00
48204;BME280;33994;50.998;5.864;2023-02-23T08:22:02;100955.03;;;7.22;100.00
48204;BME280;33994;50.998;5.864;2023-02-23T08:25:06;100959.34;;;7.23;100.00
48204;BME280;33994;50.998;5.864;2023-02-23T08:28:09;100961.97;;;7.26;100.00
48204;BME280;33994;50.998;5.864;2023-02-23T08:31:13;100963.69;;;7.27;100.00
48204;BME280;33994;50.998;5.864;2023-02-23T08:34:18;100961.09;;;7.25;100.00
48204;BME280;33994;50.998;5.864;2023-02-23T08:37:21;100957.63;;;7.23;100.00
48204;BME280;33994;50.998;5.864;2023-02-23T08:40:24;100962.81;;;7.22;100.00
48204;BME280;33994;50.998;5.864;2023-02-23T08:43:28;100967.16;;;7.23;100.00
48204;BME280;33994;50.998;5.864;2023-02-23T08:46:31;100961.97;;;7.26;100.00
48204;BME280;33994;50.998;5.864;2023-02-23T08:49:36;100968.03;;;7.26;100.00
48204;BME280;33994;50.998;5.864;2023-02-23T08:52:39;100976.69;;;7.24;100.00
48204;BME280;33994;50.998;5.864;2023-02-23T08:55:43;100980.16;;;7.23;100.00
48204;BME280;33994;50.998;5.864;2023-02-23T08:58:46;100976.69;;;7.24;100.00
48204;BME280;33994;50.998;5.864;2023-02-23T09:01:49;100979.31;;;7.22;100.00
48204;BME280;33994;50.998;5.864;2023-02-23T09:04:54;100987.97;;;7.20;100.00
48204;BME280;33994;50.998;5.864;2023-02-23T09:07:57;100986.22;;;7.19;100.00
48204;BME280;33994;50.998;5.864;2023-02-23T09:11:00;100992.31;;;7.18;100.00
48204;BME280;33994;50.998;5.864;2023-02-23T09:14:03;100992.31;;;7.18;100.00
48204;BME280;33994;50.998;5.864;2023-02-23T09:17:06;100995.75;;;7.15;100.00
48204;BME280;33994;50.998;5.864;2023-02-23T09:20:11;101000.09;;;7.12;100.00
48204;BME280;33994;50.998;5.864;2023-02-23T09:23:15;101006.16;;;7.11;100.00
48204;BME280;33994;50.998;5.864;2023-02-23T09:26:18;101004.41;;;7.13;100.00
48204;BME280;33994;50.998;5.864;2023-02-23T09:29:21;101009.63;;;7.13;100.00
48204;BME280;33994;50.998;5.864;2023-02-23T09:32:24;101001.81;;;7.13;100.00
48204;BME280;33994;50.998;5.864;2023-02-23T09:35:29;101012.25;;;7.14;100.00
48204;BME280;33994;50.998;5.864;2023-02-23T09:38:32;101015.69;;;7.16;100.00
48204;BME280;33994;50.998;5.864;2023-02-23T09:41:53;101022.63;;;7.13;100.00
48204;BME280;33994;50.998;5.864;2023-02-23T09:45:05;101022.63;;;7.13;100.00
48204;BME280;33994;50.998;5.864;2023-02-23T09:48:15;101020.91;;;7.12;100.00
48204;BME280;33994;50.998;5.864;2023-02-23T09:51:20;101033.03;;;7.14;100.00
48204;BME280;33994;50.998;5.864;2023-02-23T09:54:28;101040.00;;;7.14;100.00
48204;BME280;33994;50.998;5.864;2023-02-23T09:57:36;101040.84;;;7.14;100.00
48204;BME280;33994;50.998;5.864;2023-02-23T10:00:43;101046.91;;;7.15;100.00
48204;BME280;33994;50.998;5.864;2023-02-23T10:03:52;101047.78;;;7.15;100.00
48204;BME280;33994;50.998;5.864;2023-02-23T10:07:11;101053.00;;;7.17;100.00
48204;BME280;33994;50.998;5.864;2023-02-23T10:10:22;101049.53;;;7.18;100.00
48204;BME280;33994;50.998;5.864;2023-02-23T10:13:34;101043.44;;;7.20;100.00
48204;BME280;33994;50.998;5.864;2023-02-23T10:16:44;101056.47;;;7.20;100.00
48204;BME280;33994;50.998;5.864;2023-02-23T10:19:55;101058.22;;;7.21;100.00
48204;BME280;33994;50.998;5.864;2023-02-23T10:23:06;101057.34;;;7.24;100.00
48204;BME280;33994;50.998;5.864;2023-02-23T10:26:15;101057.34;;;7.25;100.00
48204;BME280;33994;50.998;5.864;2023-02-23T10:29:22;101053.00;;;7.27;100.00
48204;BME280;33994;50.998;5.864;2023-02-23T10:32:38;101065.19;;;7.28;100.00
48204;BME280;33994;50.998;5.864;2023-02-23T10:35:43;101060.81;;;7.27;100.00
48204;BME280;33994;50.998;5.864;2023-02-23T10:38:47;101064.31;;;7.29;100.00
48204;BME280;33994;50.998;5.864;2023-02-23T10:41:52;101069.50;;;7.31;100.00
48204;BME280;33994;50.998;5.864;2023-02-23T10:44:56;101064.31;;;7.33;100.00
48204;BME280;33994;50.998;5.864;2023-02-23T10:48:01;101066.06;;;7.32;100.00
48204;BME280;33994;50.998;5.864;2023-02-23T10:51:08;101059.09;;;7.31;100.00
48204;BME280;33994;50.998;5.864;2023-02-23T10:54:39;101067.78;;;7.33;100.00
48204;BME280;33994;50.998;5.864;2023-02-23T10:57:43;101067.78;;;7.33;100.00
48204;BME280;33994;50.998;5.864;2023-02-23T11:00:52;101069.50;;;7.34;100.00
48204;BME280;33994;50.998;5.864;2023-02-23T11:03:56;101063.44;;;7.37;100.00
48204;BME280;33994;50.998;5.864;2023-02-23T11:07:15;101070.41;;;7.42;100.00
48204;BME280;33994;50.998;5.864;2023-02-23T11:10:26;101073.03;;;7.45;100.00
48204;BME280;33994;50.998;5.864;2023-02-23T11:13:37;101074.78;;;7.48;100.00
48204;BME280;33994;50.998;5.864;2023-02-23T11:16:40;101071.31;;;7.50;100.00
48204;BME280;33994;50.998;5.864;2023-02-23T11:19:43;101073.94;;;7.52;100.00
48204;BME280;33994;50.998;5.864;2023-02-23T11:22:47;101070.44;;;7.58;100.00
48204;BME280;33994;50.998;5.864;2023-02-23T11:25:53;101078.28;;;7.64;100.00
48204;BME280;33994;50.998;5.864;2023-02-23T11:28:58;101078.25;;;7.70;100.00
48204;BME280;33994;50.998;5.864;2023-02-23T11:32:07;101068.72;;;7.76;100.00
48204;BME280;33994;50.998;5.864;2023-02-23T11:35:16;101065.28;;;7.79;100.00
48204;BME280;33994;50.998;5.864;2023-02-23T11:38:28;101062.66;;;7.84;100.00
48204;BME280;33994;50.998;5.864;2023-02-23T11:41:34;101072.22;;;7.89;100.00
48204;BME280;33994;50.998;5.864;2023-02-23T11:44:38;101064.38;;;7.92;100.00
48204;BME280;33994;50.998;5.864;2023-02-23T11:47:45;101052.25;;;7.94;99.97
48204;BME280;33994;50.998;5.864;2023-02-23T11:50:51;101047.03;;;8.00;99.68
48204;BME280;33994;50.998;5.864;2023-02-23T11:53:54;101050.47;;;8.04;99.38
48204;BME280;33994;50.998;5.864;2023-02-23T11:57:00;101049.63;;;8.05;98.86
48204;BME280;33994;50.998;5.864;2023-02-23T12:00:09;101048.78;;;8.01;98.35
48204;BME280;33994;50.998;5.864;2023-02-23T12:03:20;101047.03;;;7.97;97.74
48204;BME280;33994;50.998;5.864;2023-02-23T12:06:25;101040.06;;;7.96;97.85
